Aviation Digital Data Service (ADDS)

Output produced by METARs form (1821 UTC 22 November 2017)
found at http://www.aviationweather.gov/adds/metars/
 
TAF SLCO 221600Z 2218/2318 33010KT 9999 SCT025 FEW027CB SCT080 TX34/ 2220Z TN24/2310Z 
     TEMPO 2219/2221 26012KT 7000 SHRA 
     BECMG 2223/2302 00000KT 9999 NSW FEW020 SCT070
       
TAF SLCB 221600Z 2218/2318 06012KT 9999 FEW030 TX33/2219Z TN13/2310Z 
     BECMG 2220/2222 14012KT 
     BECMG 2304/2306 00000KT NSC
       
TAF SLLP 221600Z 2218/2318 15010KT 9999 FEW023 FEW025CB TX20/2220Z TN01/2310Z 
     BECMG 2301/2304 06005KT FEW015 
     PROB40 
     TEMPO 2306/2309 4000E VCFG FEW002 
     BECMG 2313/2315 14006KT 9999 NSW FEW015
       
TAF SLPS 221600Z 2218/2318 22007KT 9999 BKN020 BKN080 TX30/2219Z TN20/2310Z 
     BECMG 2223/2301 00000KT SCT025 
     BECMG 2314/2316 09007KT FEW020 SCT080
       
TAF SLET 221600Z 2218/2318 17015KT 9999 SCT025 BKN080 TX31/2219Z TN22/2310Z 
     BECMG 2223/2301 17007KT 
     BECMG 2315/2317 36005KT SCT023 SCT080
       
TAF SLVR 221600Z 2218/2318 18015KT 9999 SCT025 BKN080 TX31/2219Z TN22/2310Z 
     BECMG 2223/2301 17007KT 
     BECMG 2315/2317 36005KT SCT023 SCT080
       
TAF SLTJ 221600Z 2218/2318 14012KT 9999 SCT030 BKN070 TX26/2219Z TN11 /2310Z 
     BECMG 2300/2302 00000KT BKN025 
     BECMG 2314/2316 13005KT FEW025 SCT070
       
TAF SLTR 221600Z 2218/2318 33010KT 9999 SCT017 FEW023CB BKN080 TX32/ 2220Z TN23/2310Z 
     TEMPO 2219/2221 7000 TSRA 
     BECMG 2223/2302 00000KT 9999 NSW FEW017 SCT070